Time;durP1;ratioP1;P1;durP2;ratioP2;P2;SDS_P1;SDS_P2;PMS_P1;PMS_P2;Temp;Humidity;BMP_temperature;BMP_pressure;BME280_temperature;BME280_humidity;BME280_pressure;Samples;Min_cycle;Max_cycle;Signal;HPM_P1;HPM_P2
2023/07/10 00:01:27;;;;;;;15.07;13.50;;;20.40;99.90;;;;;;5051301;28;20514;-70
2023/07/10 00:03:53;;;;;;;14.93;13.35;;;20.40;99.90;;;;;;5046584;28;20475;-70
2023/07/10 00:06:19;;;;;;;15.85;14.25;;;20.40;99.90;;;;;;5028711;28;20049;-69
2023/07/10 00:08:46;;;;;;;13.57;12.10;;;20.40;99.90;;;;;;5048692;28;20106;-70
2023/07/10 00:11:30;;;;;;;15.80;13.53;;;20.40;99.90;;;;;;5056938;28;20384;-70
2023/07/10 00:13:57;;;;;;;14.45;13.05;;;20.50;99.90;;;;;;5049743;28;20102;-70
2023/07/10 00:16:24;;;;;;;13.88;12.40;;;20.40;99.90;;;;;;5048859;28;20990;-68
2023/07/10 00:18:49;;;;;;;;;;;20.40;99.90;;;;;;5051635;28;20500;-69
2023/07/10 00:21:17;;;;;;;14.87;13.37;;;20.40;99.90;;;;;;5050803;28;19931;-69
2023/07/10 00:23:43;;;;;;;15.35;13.75;;;20.30;99.90;;;;;;5055763;28;20044;-69
2023/07/10 00:26:29;;;;;;;14.68;13.20;;;20.30;99.90;;;;;;5032850;28;20032;-70
2023/07/10 00:28:58;;;;;;;17.30;15.55;;;20.30;99.90;;;;;;5042247;28;20065;-69
2023/07/10 00:31:27;;;;;;;17.50;15.55;;;20.30;99.90;;;;;;5053182;28;20056;-69
2023/07/10 00:33:53;;;;;;;17.60;15.80;;;20.30;99.90;;;;;;5052205;28;20060;-70
2023/07/10 00:36:32;;;;;;;18.27;16.30;;;20.30;99.90;;;;;;5055366;28;20044;-69
2023/07/10 00:39:11;;;;;;;18.75;16.52;;;20.20;99.90;;;;;;5022905;28;20307;-70
2023/07/10 00:41:38;;;;;;;20.13;15.90;;;20.20;99.90;;;;;;5051618;28;20044;-70
2023/07/10 00:44:05;;;;;;;18.95;16.73;;;20.20;99.90;;;;;;5052580;28;20040;-69
2023/07/10 00:46:52;;;;;;;18.77;16.77;;;20.30;99.90;;;;;;5051161;28;20100;-69
2023/07/10 00:49:33;;;;;;;23.65;17.98;;;20.30;99.90;;;;;;5038380;28;20531;-69
2023/07/10 00:52:09;;;;;;;19.25;17.15;;;20.30;99.90;;;;;;5051947;28;20077;-70
2023/07/10 00:54:39;;;;;;;18.98;16.80;;;20.30;99.90;;;;;;5043231;28;20048;-69
2023/07/10 00:57:14;;;;;;;22.40;18.05;;;20.30;99.90;;;;;;5034816;28;21690;-70
2023/07/10 00:59:42;;;;;;;22.88;18.80;;;20.20;99.90;;;;;;5027612;28;20563;-71
2023/07/10 01:02:07;;;;;;;25.50;18.23;;;20.20;99.90;;;;;;5046603;28;20490;-70
2023/07/10 01:04:39;;;;;;;24.23;18.38;;;20.20;99.90;;;;;;5029099;28;20090;-69
2023/07/10 01:07:13;;;;;;;21.67;17.92;;;20.20;99.90;;;;;;5027869;28;20045;-69
2023/07/10 01:09:46;;;;;;;27.30;17.60;;;20.10;99.90;;;;;;5029284;28;20053;-69
2023/07/10 01:12:12;;;;;;;22.75;17.02;;;20.10;99.90;;;;;;5051770;28;20123;-71
2023/07/10 01:14:37;;;;;;;24.77;18.40;;;20.10;99.90;;;;;;5026109;28;20063;-70
2023/07/10 01:17:05;;;;;;;23.95;18.08;;;20.10;99.90;;;;;;5049230;28;20605;-69
2023/07/10 01:19:32;;;;;;;18.63;15.90;;;20.10;99.90;;;;;;5034464;28;20455;-70
2023/07/10 01:21:58;;;;;;;20.58;15.95;;;20.00;99.90;;;;;;5047615;28;20492;-69
2023/07/10 01:24:24;;;;;;;20.50;16.55;;;20.00;99.90;;;;;;5042193;28;20518;-70
2023/07/10 01:26:51;;;;;;;23.23;15.48;;;20.00;99.90;;;;;;5041159;28;20464;-69
2023/07/10 01:29:25;;;;;;;;;;;20.00;99.90;;;;;;5052228;28;20148;-72
2023/07/10 01:31:53;;;;;;;24.08;17.65;;;20.00;99.90;;;;;;5052518;28;19931;-69
2023/07/10 01:34:22;;;;;;;27.65;16.00;;;20.00;99.90;;;;;;5050731;28;20099;-69
2023/07/10 01:36:49;;;;;;;21.42;16.88;;;20.00;99.90;;;;;;5048982;28;20445;-70
2023/07/10 01:39:14;;;;;;;21.45;17.33;;;20.00;99.90;;;;;;5044709;28;20052;-69
2023/07/10 01:41:42;;;;;;;20.92;16.80;;;20.00;99.90;;;;;;5052322;28;20056;-70
2023/07/10 01:44:30;;;;;;;21.15;16.70;;;20.00;99.90;;;;;;5047991;28;20040;-70
2023/07/10 01:46:57;;;;;;;20.52;15.77;;;20.00;99.90;;;;;;5055383;28;20053;-69
2023/07/10 01:49:28;;;;;;;20.80;17.13;;;20.00;99.90;;;;;;5055427;28;20048;-69
2023/07/10 01:51:56;;;;;;;19.83;15.90;;;19.90;99.90;;;;;;5056577;28;20040;-70
2023/07/10 01:54:22;;;;;;;20.73;16.42;;;19.90;99.90;;;;;;5049820;28;20040;-69
2023/07/10 01:56:48;;;;;;;21.95;16.63;;;19.90;99.90;;;;;;5045207;28;20461;-70
2023/07/10 01:59:14;;;;;;;21.45;17.38;;;19.90;99.90;;;;;;5056699;28;20056;-69
2023/07/10 02:01:40;;;;;;;21.55;17.40;;;19.90;99.90;;;;;;5047317;28;20048;-69
2023/07/10 02:04:06;;;;;;;18.35;15.60;;;19.90;99.90;;;;;;5053257;28;20153;-70
2023/07/10 02:06:34;;;;;;;21.75;15.88;;;19.90;99.90;;;;;;5053896;28;20470;-70
2023/07/10 02:09:00;;;;;;;18.17;14.95;;;19.90;99.90;;;;;;5044885;28;20049;-69
2023/07/10 02:11:26;;;;;;;20.33;16.10;;;19.90;99.90;;;;;;5048783;28;20051;-69
2023/07/10 02:13:52;;;;;;;20.27;16.48;;;19.80;99.90;;;;;;5049138;28;20044;-70
2023/07/10 02:16:18;;;;;;;17.73;15.82;;;19.90;99.90;;;;;;5047835;28;20045;-69
2023/07/10 02:18:43;;;;;;;22.80;17.08;;;19.90;99.90;;;;;;5027437;28;20041;-69
2023/07/10 02:21:09;;;;;;;21.05;17.10;;;19.90;99.90;;;;;;5047304;28;20047;-70
2023/07/10 02:23:37;;;;;;;20.52;18.10;;;19.90;99.90;;;;;;5026174;28;20191;-69
2023/07/10 02:26:03;;;;;;;19.05;16.98;;;19.90;99.90;;;;;;5041584;28;20047;-68
2023/07/10 02:28:29;;;;;;;21.42;18.17;;;19.90;99.90;;;;;;5032501;28;20067;-69
2023/07/10 02:30:54;;;;;;;20.55;18.10;;;19.90;99.90;;;;;;5046517;28;20503;-69
2023/07/10 02:33:20;;;;;;;18.70;16.75;;;19.80;99.90;;;;;;5052243;28;20079;-70
2023/07/10 02:35:46;;;;;;;19.20;17.15;;;19.80;99.90;;;;;;5047819;28;20072;-69
2023/07/10 02:38:12;;;;;;;22.30;18.57;;;19.90;99.90;;;;;;5051635;28;20052;-69
2023/07/10 02:40:38;;;;;;;21.70;19.02;;;19.90;99.90;;;;;;5044724;28;20040;-69
2023/07/10 02:43:04;;;;;;;24.58;18.80;;;19.90;99.90;;;;;;5045376;28;20106;-71
2023/07/10 02:45:30;;;;;;;21.15;18.90;;;19.90;99.90;;;;;;5046656;28;20040;-71
2023/07/10 02:47:55;;;;;;;20.38;18.30;;;19.90;99.90;;;;;;5053046;28;20051;-68
2023/07/10 02:50:21;;;;;;;21.67;18.63;;;19.90;99.90;;;;;;5051523;28;20047;-69
2023/07/10 02:52:47;;;;;;;20.52;18.27;;;19.90;99.90;;;;;;5029367;28;20048;-71
2023/07/10 02:55:12;;;;;;;20.55;18.23;;;19.90;99.90;;;;;;5048794;28;20937;-71
2023/07/10 02:57:38;;;;;;;20.13;17.75;;;19.90;99.90;;;;;;5048785;28;20040;-69
2023/07/10 03:00:04;;;;;;;20.58;18.08;;;19.90;99.90;;;;;;5047534;28;20056;-69
2023/07/10 03:02:31;;;;;;;21.60;19.40;;;19.90;99.90;;;;;;5053113;28;20571;-69
2023/07/10 03:04:56;;;;;;;22.77;19.98;;;19.90;99.90;;;;;;5043699;28;20052;-70
2023/07/10 03:07:22;;;;;;;22.17;19.95;;;19.90;99.90;;;;;;5050539;28;20705;-68
2023/07/10 03:09:49;;;;;;;21.38;19.17;;;19.90;99.90;;;;;;5051172;28;20080;-69
2023/07/10 03:12:15;;;;;;;22.27;19.58;;;19.90;99.90;;;;;;5052761;28;20052;-69
2023/07/10 03:14:40;;;;;;;21.58;19.38;;;19.90;99.90;;;;;;5044556;28;20048;-69
2023/07/10 03:17:06;;;;;;;23.05;20.55;;;19.90;99.90;;;;;;5049509;28;20051;-70
2023/07/10 03:19:32;;;;;;;21.83;19.48;;;19.80;99.90;;;;;;5050340;28;20116;-70
2023/07/10 03:21:58;;;;;;;25.73;20.75;;;19.80;99.90;;;;;;5028855;28;20053;-69
2023/07/10 03:24:24;;;;;;;23.30;20.83;;;19.80;99.90;;;;;;5045088;28;20521;-69
2023/07/10 03:26:50;;;;;;;24.35;20.98;;;19.80;99.90;;;;;;5030554;28;20067;-70
2023/07/10 03:29:16;;;;;;;23.83;21.10;;;19.80;99.90;;;;;;5055104;28;20101;-70
2023/07/10 03:31:43;;;;;;;23.85;21.35;;;19.80;99.90;;;;;;5051606;28;20044;-72
2023/07/10 03:34:11;;;;;;;24.15;21.58;;;19.80;99.90;;;;;;5049940;28;20048;-69
2023/07/10 03:36:37;;;;;;;23.38;20.98;;;19.80;99.90;;;;;;5050873;28;20068;-70
2023/07/10 03:39:04;;;;;;;25.05;22.40;;;19.80;99.90;;;;;;5055017;28;20750;-69
2023/07/10 03:41:29;;;;;;;25.33;21.60;;;19.80;99.90;;;;;;5051976;28;20557;-68
2023/07/10 03:43:55;;;;;;;25.83;23.15;;;19.80;99.90;;;;;;5027545;28;20139;-69
2023/07/10 03:46:21;;;;;;;24.13;21.70;;;19.80;99.90;;;;;;5037537;28;20488;-69
2023/07/10 03:48:47;;;;;;;25.80;23.05;;;19.80;99.90;;;;;;5050062;28;20209;-69
2023/07/10 03:51:14;;;;;;;26.30;23.30;;;19.80;99.90;;;;;;5057149;28;20127;-70
2023/07/10 03:53:40;;;;;;;26.30;23.52;;;19.80;99.90;;;;;;5053097;28;20048;-69
2023/07/10 03:56:06;;;;;;;27.23;24.33;;;19.80;99.90;;;;;;5039752;28;20102;-70
2023/07/10 03:58:35;;;;;;;25.48;22.88;;;19.80;99.90;;;;;;5051607;28;20047;-69
2023/07/10 04:01:02;;;;;;;26.48;23.63;;;19.80;99.90;;;;;;5039293;28;20084;-69
2023/07/10 04:03:31;;;;;;;28.17;23.95;;;19.80;99.90;;;;;;5034813;28;20040;-69
2023/07/10 04:05:58;;;;;;;26.50;23.67;;;19.80;99.90;;;;;;5035522;28;20724;-69
2023/07/10 04:08:35;;;;;;;29.45;26.30;;;19.70;99.90;;;;;;5034144;28;20049;-71
2023/07/10 04:11:15;;;;;;;;;;;19.80;99.90;;;;;;5028735;28;20033;-68
2023/07/10 04:13:40;;;;;;;28.23;25.38;;;19.70;99.90;;;;;;5005396;28;19960;-70
2023/07/10 04:16:17;;;;;;;29.52;26.35;;;19.70;99.90;;;;;;5034357;28;20124;-70
2023/07/10 04:18:44;;;;;;;29.20;25.77;;;19.70;99.90;;;;;;5028755;28;20095;-69
2023/07/10 04:21:11;;;;;;;;;;;19.70;99.90;;;;;;5014001;28;20112;-70
2023/07/10 04:23:37;;;;;;;32.13;27.60;;;19.70;99.90;;;;;;5027918;28;20294;-70
2023/07/10 04:26:02;;;;;;;30.25;26.95;;;19.70;99.90;;;;;;5026874;28;20039;-70
2023/07/10 04:28:28;;;;;;;30.05;26.92;;;19.70;99.90;;;;;;5032547;28;20071;-70
2023/07/10 04:30:54;;;;;;;31.88;28.42;;;19.70;99.90;;;;;;5032831;28;20076;-71
2023/07/10 04:33:21;;;;;;;30.23;27.05;;;19.70;99.90;;;;;;5033189;28;20049;-70
2023/07/10 04:35:57;;;;;;;31.65;26.98;;;19.70;99.90;;;;;;5030837;28;20499;-70
2023/07/10 04:38:25;;;;;;;30.70;26.92;;;19.70;99.90;;;;;;5032174;28;20045;-69
2023/07/10 04:40:55;;;;;;;29.02;26.02;;;19.70;99.90;;;;;;5031610;28;20041;-69
2023/07/10 04:43:21;;;;;;;29.02;25.90;;;19.70;99.90;;;;;;5026199;28;20043;-70
2023/07/10 04:45:47;;;;;;;28.83;25.70;;;19.70;99.90;;;;;;5034582;28;20044;-70
2023/07/10 04:48:12;;;;;;;28.70;25.60;;;19.70;99.90;;;;;;5034673;28;20411;-70
2023/07/10 04:50:38;;;;;;;28.27;24.00;;;19.70;99.90;;;;;;5030455;28;21752;-69
2023/07/10 04:53:04;;;;;;;29.48;25.65;;;19.70;99.90;;;;;;5030526;28;20087;-69
2023/07/10 04:55:29;;;;;;;26.98;23.42;;;19.70;99.90;;;;;;5027271;28;20500;-69
2023/07/10 04:57:55;;;;;;;25.05;22.52;;;19.80;99.90;;;;;;5012068;28;20064;-70
2023/07/10 05:00:20;;;;;;;25.17;22.17;;;19.80;99.90;;;;;;5043021;28;20063;-70
2023/07/10 05:02:46;;;;;;;26.73;23.83;;;19.80;99.90;;;;;;5045809;28;20049;-70
2023/07/10 05:05:12;;;;;;;28.63;22.88;;;19.80;99.90;;;;;;5051227;28;20086;-71
2023/07/10 05:07:38;;;;;;;25.90;21.85;;;19.70;99.90;;;;;;5053261;28;20056;-70
2023/07/10 05:10:04;;;;;;;25.65;22.38;;;19.70;99.90;;;;;;5045833;28;20044;-70
2023/07/10 05:12:29;;;;;;;27.10;23.35;;;19.70;99.90;;;;;;5053817;28;20048;-70
2023/07/10 05:14:55;;;;;;;23.85;21.35;;;19.80;99.90;;;;;;5047285;28;20392;-72
2023/07/10 05:17:21;;;;;;;24.95;22.25;;;19.70;99.90;;;;;;5046725;28;20115;-70
2023/07/10 05:19:47;;;;;;;26.10;21.52;;;19.70;99.90;;;;;;5052950;28;20488;-71
2023/07/10 05:22:12;;;;;;;23.58;20.83;;;19.80;99.90;;;;;;5052735;28;20063;-70
2023/07/10 05:24:38;;;;;;;23.15;20.80;;;19.80;99.90;;;;;;5048601;28;20044;-69
2023/07/10 05:27:04;;;;;;;22.63;20.27;;;19.80;99.90;;;;;;5052734;28;20036;-70
2023/07/10 05:29:30;;;;;;;22.05;19.83;;;19.70;99.90;;;;;;5052027;28;20131;-71
2023/07/10 05:31:56;;;;;;;21.00;17.40;;;19.80;99.90;;;;;;5034393;28;20056;-70
2023/07/10 05:34:23;;;;;;;23.00;18.53;;;19.80;99.90;;;;;;5058603;28;20043;-70
2023/07/10 05:36:49;;;;;;;19.17;17.02;;;19.80;99.90;;;;;;5055510;28;20048;-70
2023/07/10 05:39:15;;;;;;;20.02;16.35;;;19.70;99.90;;;;;;5029278;28;20051;-70
2023/07/10 05:41:41;;;;;;;20.48;15.98;;;19.70;99.90;;;;;;5054660;28;20055;-71
2023/07/10 05:44:07;;;;;;;19.27;15.65;;;19.70;99.90;;;;;;5049882;28;20044;-71
2023/07/10 05:46:33;;;;;;;19.38;14.70;;;19.70;99.90;;;;;;5051445;28;20051;-70
2023/07/10 05:48:58;;;;;;;16.67;13.40;;;19.70;99.90;;;;;;5047601;28;20525;-69
2023/07/10 05:51:24;;;;;;;14.68;12.18;;;19.70;99.90;;;;;;5048466;28;20068;-72
2023/07/10 05:53:50;;;;;;;14.13;11.52;;;19.70;99.90;;;;;;5046430;28;20048;-71
2023/07/10 05:56:15;;;;;;;13.45;10.73;;;19.70;99.90;;;;;;5029392;28;20094;-71
2023/07/10 05:58:41;;;;;;;11.38;9.82;;;19.70;99.90;;;;;;5026538;28;20118;-70
2023/07/10 06:01:09;;;;;;;11.77;8.50;;;19.70;99.90;;;;;;5026426;28;20099;-71
2023/07/10 06:03:35;;;;;;;9.60;7.07;;;19.70;99.90;;;;;;5026400;28;20492;-72
2023/07/10 06:06:05;;;;;;;9.40;6.82;;;19.70;99.90;;;;;;5019032;28;20041;-71
2023/07/10 06:08:32;;;;;;;10.02;6.53;;;19.70;99.90;;;;;;5026143;28;20032;-72
2023/07/10 06:10:58;;;;;;;7.35;5.13;;;19.70;99.90;;;;;;5029604;28;20139;-70
2023/07/10 06:13:25;;;;;;;9.23;5.20;;;19.70;99.90;;;;;;5029720;28;20045;-71
2023/07/10 06:15:53;;;;;;;8.55;4.97;;;19.70;99.90;;;;;;5027098;28;20049;-71
2023/07/10 06:18:20;;;;;;;7.25;4.63;;;19.80;99.90;;;;;;5022225;28;20048;-71
2023/07/10 06:20:57;;;;;;;8.67;4.60;;;19.80;99.90;;;;;;5020374;28;20119;-71
2023/07/10 06:23:24;;;;;;;7.32;4.25;;;19.80;99.90;;;;;;5027122;28;20723;-71
2023/07/10 06:25:51;;;;;;;;;;;19.70;99.90;;;;;;5021078;28;22387;-70
2023/07/10 06:28:17;;;;;;;7.65;3.95;;;19.70;99.90;;;;;;5025327;28;19925;-71
2023/07/10 06:30:46;;;;;;;6.40;4.25;;;19.70;99.90;;;;;;5026428;28;20053;-70
2023/07/10 06:33:11;;;;;;;6.95;4.47;;;19.70;99.90;;;;;;5022707;28;20047;-70
2023/07/10 06:35:37;;;;;;;6.85;4.47;;;19.70;99.90;;;;;;5028774;28;20041;-71
2023/07/10 06:38:03;;;;;;;8.32;5.03;;;19.80;99.90;;;;;;5012182;28;20132;-72
2023/07/10 06:40:28;;;;;;;7.65;5.00;;;19.80;99.90;;;;;;5022417;28;20053;-70
2023/07/10 06:42:54;;;;;;;7.03;4.55;;;19.80;99.90;;;;;;5016547;28;20067;-70
2023/07/10 06:45:20;;;;;;;5.70;4.50;;;19.90;99.90;;;;;;5025264;28;20045;-71
2023/07/10 06:47:46;;;;;;;8.52;4.28;;;19.90;99.90;;;;;;5012336;28;20045;-72
2023/07/10 06:50:14;;;;;;;7.40;4.75;;;19.90;99.90;;;;;;5025122;28;21231;-71
2023/07/10 06:52:42;;;;;;;6.30;4.53;;;19.90;99.90;;;;;;5020696;28;20076;-72
2023/07/10 06:55:11;;;;;;;7.43;4.72;;;20.00;99.90;;;;;;5025525;28;20507;-72
2023/07/10 06:57:37;;;;;;;8.15;4.97;;;20.00;99.90;;;;;;5030788;28;20461;-71
2023/07/10 07:00:05;;;;;;;7.55;4.57;;;20.10;99.90;;;;;;5038984;28;20061;-72
2023/07/10 07:02:31;;;;;;;8.75;5.05;;;20.20;99.90;;;;;;5047710;28;20049;-70
2023/07/10 07:04:57;;;;;;;10.35;5.80;;;20.30;99.90;;;;;;5031688;28;20534;-72
2023/07/10 07:07:23;;;;;;;10.38;5.30;;;20.30;99.90;;;;;;5048205;28;20059;-71
2023/07/10 07:09:49;;;;;;;7.05;5.00;;;20.40;99.90;;;;;;5053459;28;20046;-70
2023/07/10 07:12:14;;;;;;;7.47;5.05;;;20.50;99.90;;;;;;5037328;28;20210;-70
2023/07/10 07:14:40;;;;;;;10.45;5.05;;;20.60;99.90;;;;;;5053991;28;20056;-71
2023/07/10 07:17:06;;;;;;;8.02;4.70;;;20.70;99.90;;;;;;5052253;28;20123;-70
2023/07/10 07:19:32;;;;;;;7.45;4.50;;;20.70;99.90;;;;;;5054889;28;20083;-72
2023/07/10 07:22:00;;;;;;;7.97;4.25;;;20.70;99.90;;;;;;5037004;28;20052;-71
2023/07/10 07:24:25;;;;;;;7.93;4.32;;;20.70;99.90;;;;;;5058251;28;20048;-70
2023/07/10 07:26:51;;;;;;;7.43;3.88;;;20.80;99.90;;;;;;5042368;28;20059;-71
2023/07/10 07:29:17;;;;;;;8.45;3.47;;;20.90;99.90;;;;;;5056411;28;20116;-71
2023/07/10 07:31:42;;;;;;;8.95;3.25;;;21.00;99.90;;;;;;5035226;28;20080;-73
2023/07/10 07:34:09;;;;;;;7.55;3.17;;;21.00;99.90;;;;;;5047163;28;20056;-72
2023/07/10 07:36:34;;;;;;;9.02;3.08;;;21.00;99.90;;;;;;5039530;28;20044;-71
2023/07/10 07:39:04;;;;;;;6.07;2.88;;;20.90;99.90;;;;;;5028884;28;20040;-70
2023/07/10 07:41:33;;;;;;;6.80;2.97;;;20.90;99.90;;;;;;5056540;28;20049;-72
2023/07/10 07:44:01;;;;;;;9.30;2.83;;;21.00;99.90;;;;;;5027417;28;20041;-70
2023/07/10 07:46:27;;;;;;;6.68;2.30;;;21.10;99.90;;;;;;5056630;28;20075;-70
2023/07/10 07:48:52;;;;;;;5.35;2.42;;;21.20;99.90;;;;;;5054016;28;22570;-70
2023/07/10 07:51:18;;;;;;;7.75;3.00;;;21.30;99.90;;;;;;5051905;28;20187;-72
2023/07/10 07:53:44;;;;;;;8.25;2.60;;;21.40;99.90;;;;;;5047158;28;20123;-71
2023/07/10 07:56:11;;;;;;;9.55;2.95;;;21.50;99.90;;;;;;5047832;28;20048;-72
2023/07/10 07:58:36;;;;;;;7.35;2.72;;;21.60;99.90;;;;;;5052938;28;20044;-72
2023/07/10 08:01:03;;;;;;;6.85;2.35;;;21.50;99.90;;;;;;5034475;28;20561;-72
2023/07/10 08:03:29;;;;;;;6.82;2.92;;;21.50;99.90;;;;;;5054755;28;20052;-72
2023/07/10 08:05:55;;;;;;;9.05;2.88;;;21.50;99.90;;;;;;5056916;28;20089;-71
2023/07/10 08:08:22;;;;;;;6.35;2.53;;;21.60;99.90;;;;;;5056169;28;20496;-72
2023/07/10 08:10:49;;;;;;;8.13;2.85;;;21.70;99.90;;;;;;5048684;28;20052;-70
2023/07/10 08:13:19;;;;;;;5.85;2.75;;;21.90;99.90;;;;;;5049729;28;20048;-72
2023/07/10 08:15:45;;;;;;;9.02;2.90;;;22.00;99.90;;;;;;5057257;28;20049;-72
2023/07/10 08:18:10;;;;;;;8.25;2.80;;;22.10;99.90;;;;;;5038080;28;20048;-73
2023/07/10 08:20:37;;;;;;;5.00;2.40;;;22.20;99.90;;;;;;5036972;28;20075;-73
2023/07/10 08:23:04;;;;;;;6.60;2.78;;;22.30;99.90;;;;;;5052142;28;20074;-73
2023/07/10 08:25:30;;;;;;;9.75;3.20;;;22.30;99.90;;;;;;5051192;28;20051;-72
2023/07/10 08:27:58;;;;;;;6.78;2.30;;;22.40;99.90;;;;;;5052380;28;21220;-72
2023/07/10 08:30:24;;;;;;;7.32;2.53;;;22.40;99.90;;;;;;5052519;28;20037;-73
2023/07/10 08:32:50;;;;;;;7.80;2.60;;;22.50;99.90;;;;;;5024044;28;20045;-73
2023/07/10 08:35:16;;;;;;;8.20;2.80;;;22.50;99.90;;;;;;5032315;28;20048;-73
2023/07/10 08:37:41;;;;;;;7.25;2.50;;;22.60;99.90;;;;;;5037689;28;20043;-73
2023/07/10 08:40:15;;;;;;;5.53;2.50;;;22.60;99.90;;;;;;5038478;28;20050;-71
2023/07/10 08:42:41;;;;;;;6.32;2.50;;;22.70;99.90;;;;;;5054498;28;20102;-69
2023/07/10 08:45:20;;;;;;;10.07;2.70;;;22.80;99.90;;;;;;5033971;28;20048;-70
2023/07/10 08:47:50;;;;;;;6.75;2.92;;;22.80;99.90;;;;;;5043460;28;20051;-72
2023/07/10 08:50:28;;;;;;;7.32;2.80;;;22.90;99.90;;;;;;5059527;28;20097;-70
2023/07/10 08:52:59;;;;;;;8.35;3.40;;;23.00;99.90;;;;;;5053827;28;20131;-69
2023/07/10 08:55:42;;;;;;;6.93;3.67;;;23.10;99.90;;;;;;5030644;28;20060;-69
2023/07/10 08:58:18;;;;;;;11.27;3.78;;;23.10;99.90;;;;;;5054577;28;20461;-70
2023/07/10 09:00:47;;;;;;;8.93;4.25;;;23.20;99.90;;;;;;5052508;28;20048;-70
2023/07/10 09:03:45;;;;;;;9.63;4.35;;;23.30;99.90;;;;;;5057535;28;20052;-72
2023/07/10 09:06:19;;;;;;;9.02;4.10;;;23.30;99.90;;;;;;5039488;28;20565;-69
2023/07/10 09:08:50;;;;;;;8.10;3.47;;;23.20;99.90;;;;;;5053545;28;20119;-70
2023/07/10 09:11:17;;;;;;;5.68;3.38;;;23.20;99.90;;;;;;5052843;28;20036;-71
2023/07/10 09:14:14;;;;;;;9.50;4.15;;;23.10;99.90;;;;;;5057367;28;20051;-70
2023/07/10 09:16:40;;;;;;;9.13;3.92;;;23.20;99.90;;;;;;5045444;28;20056;-69
2023/07/10 09:19:12;;;;;;;8.35;3.30;;;23.30;99.90;;;;;;5054141;28;20055;-72
2023/07/10 09:21:40;;;;;;;8.02;3.17;;;23.40;99.90;;;;;;5037341;28;20057;-70
2023/07/10 09:24:21;;;;;;;8.60;3.38;;;23.40;99.90;;;;;;5048329;28;20560;-70
2023/07/10 09:26:47;;;;;;;7.88;3.13;;;23.40;99.90;;;;;;5053796;28;20095;-69
2023/07/10 09:29:16;;;;;;;8.38;3.10;;;23.50;99.90;;;;;;5056302;28;20063;-69
2023/07/10 09:32:19;;;;;;;5.78;3.03;;;23.60;99.90;;;;;;5034497;28;20045;-71
2023/07/10 09:34:58;;;;;;;8.77;3.28;;;23.60;99.90;;;;;;5051859;28;20060;-71
2023/07/10 09:37:30;;;;;;;9.25;3.05;;;23.60;99.90;;;;;;5029433;28;20044;-70
2023/07/10 09:39:56;;;;;;;9.85;2.70;;;23.60;99.90;;;;;;5029507;28;20048;-70
2023/07/10 09:42:32;;;;;;;9.40;2.45;;;23.60;99.90;;;;;;5045863;28;20451;-71
2023/07/10 09:44:59;;;;;;;8.35;2.70;;;23.70;99.90;;;;;;5026167;28;20049;-70
2023/07/10 09:47:40;;;;;;;6.63;2.30;;;23.60;99.90;;;;;;5054175;28;20416;-69
2023/07/10 09:50:14;;;;;;;8.15;2.30;;;23.40;99.90;;;;;;5048103;28;20082;-68
2023/07/10 09:52:42;;;;;;;6.72;2.40;;;23.40;99.90;;;;;;5051954;28;20115;-68
2023/07/10 09:55:08;;;;;;;9.05;2.55;;;23.40;99.90;;;;;;5052731;28;20053;-69
2023/07/10 09:57:57;;;;;;;7.18;2.40;;;23.50;99.90;;;;;;5035775;28;20092;-70
2023/07/10 10:00:23;;;;;;;9.25;2.75;;;23.60;99.90;;;;;;5052999;28;20469;-69
2023/07/10 10:02:56;;;;;;;8.75;2.90;;;23.70;99.90;;;;;;5047219;28;20044;-70
2023/07/10 10:05:22;;;;;;;9.05;2.50;;;23.80;99.90;;;;;;5037566;28;20505;-70
2023/07/10 10:07:54;;;;;;;7.47;2.00;;;23.90;99.90;;;;;;5053402;28;20048;-70
2023/07/10 10:10:33;;;;;;;6.85;2.33;;;23.90;99.90;;;;;;5031176;28;20048;-70
2023/07/10 10:13:12;;;;;;;8.60;2.40;;;24.00;99.90;;;;;;5045905;28;20061;-71
2023/07/10 10:15:43;;;;;;;8.23;2.63;;;24.10;99.90;;;;;;5028682;28;20044;-71
2023/07/10 10:18:40;;;;;;;9.15;2.55;;;24.10;99.90;;;;;;5052767;28;20128;-69
2023/07/10 10:21:09;;;;;;;9.73;2.63;;;24.10;99.90;;;;;;5035803;28;20048;-70
2023/07/10 10:23:39;;;;;;;8.38;2.75;;;24.20;99.90;;;;;;5045551;28;20044;-72
2023/07/10 10:26:19;;;;;;;8.75;2.80;;;24.30;99.90;;;;;;5033241;28;20053;-69
2023/07/10 10:29:03;;;;;;;8.43;3.20;;;24.30;99.90;;;;;;5057753;28;20616;-69
2023/07/10 10:31:36;;;;;;;10.30;3.15;;;24.40;99.90;;;;;;5024932;28;20052;-69
2023/07/10 10:34:23;;;;;;;8.90;3.30;;;24.40;99.90;;;;;;5056201;28;20037;-70
2023/07/10 10:37:13;;;;;;;10.73;2.97;;;24.50;99.90;;;;;;5056498;28;20113;-68
2023/07/10 10:39:44;;;;;;;9.32;2.90;;;24.60;99.90;;;;;;5045767;28;20048;-70
2023/07/10 10:42:20;;;;;;;12.65;3.13;;;24.80;99.90;;;;;;5034654;28;20086;-68
2023/07/10 10:44:55;;;;;;;10.50;3.40;;;24.90;99.90;;;;;;5047955;28;20495;-71
2023/07/10 10:47:40;;;;;;;8.70;2.63;;;24.90;99.90;;;;;;5041650;28;20059;-70
2023/07/10 10:50:32;;;;;;;9.10;2.85;;;24.90;99.90;;;;;;5052298;28;20561;-73
2023/07/10 10:52:58;;;;;;;9.77;2.72;;;24.70;99.90;;;;;;5040247;28;20053;-69
2023/07/10 10:55:48;;;;;;;10.00;3.42;;;24.60;99.90;;;;;;5018897;28;20056;-70
2023/07/10 10:58:24;;;;;;;11.02;2.83;;;24.60;99.90;;;;;;5029409;28;20117;-69
2023/07/10 11:00:55;;;;;;;11.10;2.97;;;24.60;99.90;;;;;;5032618;28;20076;-70
2023/07/10 11:03:36;;;;;;;9.15;2.60;;;24.60;99.90;;;;;;5055373;28;20048;-71
2023/07/10 11:06:36;;;;;;;8.48;2.63;;;24.40;99.90;;;;;;5040421;28;20103;-71
2023/07/10 11:09:07;;;;;;;7.57;2.65;;;24.30;99.90;;;;;;5033662;28;20113;-71
2023/07/10 11:11:36;;;;;;;6.78;2.28;;;24.30;99.90;;;;;;5024886;28;20128;-71
2023/07/10 11:14:03;;;;;;;9.10;2.53;;;24.40;99.90;;;;;;5034863;28;20059;-70
2023/07/10 11:16:31;;;;;;;10.13;2.63;;;24.50;99.90;;;;;;5052887;28;20683;-70
2023/07/10 11:18:58;;;;;;;8.68;2.60;;;24.60;99.90;;;;;;5053008;28;20554;-71
2023/07/10 11:21:24;;;;;;;9.55;2.67;;;24.50;99.90;;;;;;5050687;28;20084;-70
2023/07/10 11:23:51;;;;;;;6.45;2.28;;;24.50;99.90;;;;;;5041567;28;20064;-69
2023/07/10 11:26:25;;;;;;;9.63;2.55;;;24.60;99.90;;;;;;5054484;28;20040;-69
2023/07/10 11:28:55;;;;;;;9.75;3.63;;;24.70;99.90;;;;;;5034127;28;20044;-69
2023/07/10 11:31:30;;;;;;;10.73;2.75;;;24.90;99.90;;;;;;5055000;28;20131;-69
2023/07/10 11:34:04;;;;;;;9.90;3.40;;;24.90;99.90;;;;;;5051338;28;20051;-70
2023/07/10 11:36:33;;;;;;;9.95;2.40;;;25.10;99.90;;;;;;5049151;28;20044;-70
2023/07/10 11:39:05;;;;;;;7.60;2.60;;;25.20;99.90;;;;;;5045541;28;20109;-70
2023/07/10 11:41:33;;;;;;;7.97;2.65;;;25.30;99.90;;;;;;5041846;28;20125;-69
2023/07/10 11:44:14;;;;;;;10.05;2.70;;;25.30;99.90;;;;;;5048302;28;20185;-68
2023/07/10 11:47:04;;;;;;;6.28;2.50;;;25.20;99.90;;;;;;5054905;28;20404;-68
2023/07/10 11:49:50;;;;;;;7.03;1.92;;;25.30;99.90;;;;;;5050499;28;20107;-68
2023/07/10 11:52:16;;;;;;;9.48;2.50;;;25.40;99.70;;;;;;5049542;28;20051;-69
2023/07/10 11:54:48;;;;;;;8.82;2.63;;;25.50;99.50;;;;;;5026860;28;20052;-69
2023/07/10 11:57:27;;;;;;;8.63;2.45;;;25.60;99.30;;;;;;5054383;28;20045;-69
2023/07/10 11:59:55;;;;;;;10.90;2.58;;;25.80;98.50;;;;;;5054938;28;20048;-70
2023/07/10 12:02:48;;;;;;;6.47;2.10;;;25.80;98.40;;;;;;5051011;28;20085;-68
2023/07/10 12:05:46;;;;;;;9.68;2.67;;;25.90;98.10;;;;;;5045986;28;20176;-69
2023/07/10 12:08:14;;;;;;;7.53;2.30;;;26.00;98.90;;;;;;5037497;28;20056;-69
2023/07/10 12:10:48;;;;;;;6.50;2.15;;;26.00;98.00;;;;;;5060678;28;20106;-68
2023/07/10 12:13:27;;;;;;;5.22;2.05;;;26.00;96.60;;;;;;5057202;28;20052;-68
2023/07/10 12:15:55;;;;;;;7.45;2.20;;;25.90;97.00;;;;;;5060680;28;20084;-69
2023/07/10 12:18:38;;;;;;;9.15;2.42;;;25.90;96.70;;;;;;5059533;28;20511;-71
2023/07/10 12:21:15;;;;;;;5.85;1.85;;;25.90;96.20;;;;;;5057125;28;20363;-69
2023/07/10 12:24:00;;;;;;;7.72;2.70;;;25.90;96.20;;;;;;5048116;28;20102;-69
2023/07/10 12:26:26;;;;;;;10.43;2.50;;;25.90;96.00;;;;;;5058587;28;20048;-69
2023/07/10 12:28:57;;;;;;;9.52;2.13;;;25.80;95.60;;;;;;5055935;28;20771;-69
2023/07/10 12:31:24;;;;;;;5.57;2.28;;;25.60;95.30;;;;;;5049796;28;20048;-69
2023/07/10 12:33:50;;;;;;;;;;;25.40;95.00;;;;;;5050876;28;20043;-69
2023/07/10 12:36:31;;;;;;;5.95;2.17;;;25.20;93.70;;;;;;5035404;28;19928;-72
2023/07/10 12:38:59;;;;;;;8.25;1.80;;;25.00;94.40;;;;;;5044781;28;20048;-71
2023/07/10 12:41:30;;;;;;;5.28;1.90;;;25.00;95.80;;;;;;5044931;28;20037;-70
2023/07/10 12:44:00;;;;;;;8.85;2.10;;;25.20;97.20;;;;;;5058158;28;20179;-71
2023/07/10 12:46:28;;;;;;;8.05;2.00;;;25.40;95.90;;;;;;5047362;28;20116;-70
2023/07/10 12:49:09;;;;;;;6.55;2.00;;;25.60;95.10;;;;;;5043068;28;20808;-72
2023/07/10 12:51:39;;;;;;;7.05;2.00;;;25.80;94.80;;;;;;5048672;28;20069;-72